Time;durP1;ratioP1;P1;durP2;ratioP2;P2;SDS_P1;SDS_P2;PMS_P1;PMS_P2;Temp;Humidity;BMP_temperature;BMP_pressure;BME280_temperature;BME280_humidity;BME280_pressure;Samples;Min_cycle;Max_cycle;Signal;HPM_P1;HPM_P2
2022/03/15 00:01:31;;;;;;;39.00;18.80;;;;;;;-1.43;66.77;101067.84;109384;1274;23582;-65
2022/03/15 00:04:00;;;;;;;37.50;19.50;;;;;;;-1.45;66.84;101063.77;109471;1274;22526;-65
2022/03/15 00:06:28;;;;;;;41.60;20.40;;;;;;;-1.46;66.92;101061.95;109517;1274;22411;-65
2022/03/15 00:08:56;;;;;;;44.20;20.70;;;;;;;-1.48;66.86;101063.16;109517;1274;22434;-65
2022/03/15 00:11:25;;;;;;;42.80;20.70;;;;;;;-1.50;66.98;101057.48;109479;1274;23168;-65
2022/03/15 00:13:53;;;;;;;39.00;18.60;;;;;;;-1.50;66.92;101057.14;109452;1274;22430;-65
2022/03/15 00:16:21;;;;;;;37.90;20.90;;;;;;;-1.51;67.07;101054.41;109171;1276;22415;-65
2022/03/15 00:18:50;;;;;;;42.00;20.60;;;;;;;-1.52;67.16;101053.73;109426;1274;22258;-65
2022/03/15 00:21:20;;;;;;;41.80;20.60;;;;;;;-1.53;67.01;101052.61;109441;1274;23139;-65
2022/03/15 00:23:48;;;;;;;37.50;19.00;;;;;;;-1.53;67.22;101046.02;109413;1274;23073;-65
2022/03/15 00:26:16;;;;;;;38.30;19.40;;;;;;;-1.54;67.21;101047.48;109399;1274;23107;-65
2022/03/15 00:28:44;;;;;;;34.00;18.00;;;;;;;-1.53;67.39;101046.70;109100;1276;23226;-66
2022/03/15 00:31:12;;;;;;;37.20;17.80;;;;;;;-1.52;67.35;101045.33;109354;1274;22515;-65
2022/03/15 00:33:41;;;;;;;34.00;18.10;;;;;;;-1.50;67.49;101041.98;109394;1274;22536;-65
2022/03/15 00:36:10;;;;;;;36.60;18.80;;;;;;;-1.47;67.39;101039.41;109441;1274;22383;-66
2022/03/15 00:38:41;;;;;;;37.10;18.80;;;;;;;-1.45;67.33;101039.38;109585;1273;22531;-64
2022/03/15 00:41:09;;;;;;;32.80;17.90;;;;;;;-1.43;67.33;101037.75;109516;1273;22442;-64
2022/03/15 00:43:38;;;;;;;41.10;20.80;;;;;;;-1.42;67.22;101035.02;109525;1273;22406;-65
2022/03/15 00:46:07;;;;;;;34.30;17.50;;;;;;;-1.39;67.34;101031.04;109409;1273;24685;-65
2022/03/15 00:48:36;;;;;;;37.40;19.00;;;;;;;-1.36;67.31;101034.97;109576;1273;22461;-65
2022/03/15 00:51:04;;;;;;;37.00;20.50;;;;;;;-1.33;67.20;101034.19;109414;1273;22401;-65
2022/03/15 00:53:32;;;;;;;35.90;20.30;;;;;;;-1.32;67.34;101032.52;109617;1273;23140;-65
2022/03/15 00:56:01;;;;;;;42.20;20.20;;;;;;;-1.32;67.20;101030.67;109575;1273;23215;-65
2022/03/15 00:58:30;;;;;;;35.30;19.80;;;;;;;-1.33;67.06;101032.94;109479;1273;23255;-65
2022/03/15 01:00:59;;;;;;;38.70;21.40;;;;;;;-1.33;67.18;101029.56;109592;1273;22218;-64
2022/03/15 01:03:29;;;;;;;36.80;19.40;;;;;;;-1.34;67.03;101030.02;109542;1273;22418;-65
2022/03/15 01:05:58;;;;;;;37.60;20.50;;;;;;;-1.35;67.04;101030.64;109558;1272;22456;-65
2022/03/15 01:08:27;;;;;;;36.40;20.40;;;;;;;-1.37;66.91;101030.64;109363;1273;23491;-65
2022/03/15 01:10:56;;;;;;;36.60;20.90;;;;;;;-1.38;66.97;101031.98;109612;1272;22575;-65
2022/03/15 01:13:44;;;;;;;30.80;18.90;;;;;;;-1.41;66.99;101028.33;109457;1273;22464;-65
2022/03/15 01:16:12;;;;;;;36.70;20.00;;;;;;;-1.44;67.10;101027.36;109603;1274;22493;-66
2022/03/15 01:18:41;;;;;;;39.90;19.70;;;;;;;-1.47;67.13;101021.18;109573;1273;23325;-65
2022/03/15 01:21:11;;;;;;;33.00;17.90;;;;;;;-1.47;67.20;101026.16;109440;1274;23194;-65
2022/03/15 01:23:41;;;;;;;31.80;16.90;;;;;;;-1.47;67.21;101027.77;109440;1274;23097;-65
2022/03/15 01:26:09;;;;;;;32.10;17.30;;;;;;;-1.49;67.30;101024.98;109471;1274;23005;-65
2022/03/15 01:28:39;;;;;;;30.70;17.10;;;;;;;-1.48;67.38;101027.39;109517;1273;23498;-65
2022/03/15 01:31:07;;;;;;;31.10;16.20;;;;;;;-1.49;67.23;101025.13;109489;1273;22415;-65
2022/03/15 01:33:36;;;;;;;29.80;15.20;;;;;;;-1.49;67.41;101022.42;109600;1273;22343;-65
2022/03/15 01:36:05;;;;;;;25.70;16.00;;;;;;;-1.48;67.46;101022.92;109586;1273;22415;-65
2022/03/15 01:38:35;;;;;;;31.00;15.50;;;;;;;-1.48;67.43;101024.87;109594;1273;22413;-65
2022/03/15 01:41:03;;;;;;;34.70;16.60;;;;;;;-1.46;67.51;101020.45;109486;1273;22243;-65
2022/03/15 01:43:33;;;;;;;33.20;17.80;;;;;;;-1.46;67.54;101017.18;109457;1274;22457;-65
2022/03/15 01:46:02;;;;;;;39.00;18.90;;;;;;;-1.46;67.51;101016.62;109524;1274;22381;-65
2022/03/15 01:48:33;;;;;;;36.90;18.60;;;;;;;-1.46;67.50;101019.83;109391;1274;22423;-65
2022/03/15 01:51:02;;;;;;;32.10;18.20;;;;;;;-1.45;67.69;101019.63;109394;1274;22415;-65
2022/03/15 01:53:31;;;;;;;32.50;17.40;;;;;;;-1.45;67.52;101019.39;109412;1274;22535;-66
2022/03/15 01:55:59;;;;;;;38.80;19.10;;;;;;;-1.44;67.62;101020.54;109354;1274;22483;-65
2022/03/15 01:58:28;;;;;;;47.70;22.10;;;;;;;-1.45;67.61;101016.40;109400;1274;23104;-65
2022/03/15 02:00:58;;;;;;;35.70;18.70;;;;;;;-1.43;67.58;101017.94;109346;1274;22385;-66
2022/03/15 02:03:26;;;;;;;32.70;18.20;;;;;;;-1.43;67.66;101017.80;109344;1273;22450;-65
2022/03/15 02:05:54;;;;;;;38.20;19.70;;;;;;;-1.43;67.51;101020.59;109548;1273;22602;-65
2022/03/15 02:08:22;;;;;;;58.80;20.90;;;;;;;-1.45;67.46;101018.14;109460;1274;22493;-65
2022/03/15 02:10:52;;;;;;;42.00;20.30;;;;;;;-1.47;67.33;101014.59;109330;1274;22453;-65
2022/03/15 02:13:21;;;;;;;45.70;20.00;;;;;;;-1.46;67.31;101018.12;109550;1274;23434;-65
2022/03/15 02:15:50;;;;;;;45.50;22.90;;;;;;;-1.48;67.36;101019.52;109490;1273;22501;-65
2022/03/15 02:18:19;;;;;;;41.10;20.00;;;;;;;-1.51;67.30;101016.40;109361;1274;22410;-66
2022/03/15 02:20:47;;;;;;;49.90;22.10;;;;;;;-1.54;67.30;101017.44;109536;1273;22532;-65
2022/03/15 02:23:17;;;;;;;48.20;22.70;;;;;;;-1.58;67.23;101014.61;109573;1274;22405;-65
2022/03/15 02:25:45;;;;;;;44.20;22.10;;;;;;;-1.62;67.28;101013.00;109585;1273;23502;-65
2022/03/15 02:28:13;;;;;;;43.60;20.70;;;;;;;-1.66;67.44;101009.11;109557;1273;23418;-65
2022/03/15 02:30:41;;;;;;;38.70;19.60;;;;;;;-1.71;67.32;101008.73;109580;1273;22448;-65
2022/03/15 02:33:11;;;;;;;38.20;19.80;;;;;;;-1.77;67.18;101011.07;109384;1274;22428;-65
2022/03/15 02:35:39;;;;;;;41.80;21.20;;;;;;;-1.83;67.35;101007.46;109512;1274;22452;-65
2022/03/15 02:38:09;;;;;;;46.00;21.50;;;;;;;-1.89;67.48;101006.77;109476;1274;22442;-65
2022/03/15 02:40:38;;;;;;;44.40;21.20;;;;;;;-1.93;67.65;101005.95;109462;1274;23540;-64
2022/03/15 02:43:10;;;;;;;41.10;22.00;;;;;;;-2.00;67.51;101005.14;109517;1274;23173;-65
2022/03/15 02:45:41;;;;;;;43.20;21.00;;;;;;;-2.08;67.76;101004.81;109474;1274;22436;-64
2022/03/15 02:48:09;;;;;;;40.50;18.90;;;;;;;-2.15;67.76;101005.64;109436;1274;23531;-65
2022/03/15 02:50:37;;;;;;;41.50;20.10;;;;;;;-2.22;67.83;101001.69;109400;1276;22464;-65
2022/03/15 02:53:06;;;;;;;43.70;20.60;;;;;;;-2.28;67.95;101002.23;109393;1275;22440;-65
2022/03/15 02:55:34;;;;;;;41.40;20.20;;;;;;;-2.36;68.06;100999.70;109409;1274;22425;-65
2022/03/15 02:58:02;;;;;;;53.40;21.30;;;;;;;-2.41;68.19;101004.27;109408;1274;22430;-65
2022/03/15 03:00:31;;;;;;;55.20;25.20;;;;;;;-2.45;68.13;101003.44;109354;1274;22418;-65
2022/03/15 03:02:59;;;;;;;55.40;24.30;;;;;;;-2.49;68.51;101006.42;109343;1276;22427;-65
2022/03/15 03:05:29;;;;;;;68.80;29.10;;;;;;;-2.52;68.62;101003.10;109388;1274;22451;-65
2022/03/15 03:07:58;;;;;;;71.10;27.80;;;;;;;-2.55;68.76;101001.09;109394;1274;22400;-65
2022/03/15 03:10:26;;;;;;;77.30;27.80;;;;;;;-2.58;68.85;100997.44;109459;1274;23222;-65
2022/03/15 03:12:55;;;;;;;76.30;28.20;;;;;;;-2.61;68.98;100999.71;109435;1274;22418;-66
2022/03/15 03:15:24;;;;;;;75.30;29.70;;;;;;;-2.64;69.09;100998.89;109429;1274;22508;-65
2022/03/15 03:18:00;;;;;;;66.00;27.30;;;;;;;-2.68;69.24;100999.08;109406;1274;22441;-64
2022/03/15 03:20:36;;;;;;;72.40;28.90;;;;;;;-2.74;69.20;101001.73;109444;1274;23463;-64
2022/03/15 03:23:04;;;;;;;63.70;25.10;;;;;;;-2.79;69.19;101003.13;109460;1274;22448;-64
2022/03/15 03:25:36;;;;;;;56.60;23.10;;;;;;;-2.84;69.35;101001.41;109427;1274;22404;-64
2022/03/15 03:28:05;;;;;;;56.60;22.80;;;;;;;-2.89;69.38;101001.30;109459;1274;22564;-65
2022/03/15 03:30:37;;;;;;;52.80;22.40;;;;;;;-2.95;69.37;100999.36;109328;1276;22397;-64
2022/03/15 03:33:05;;;;;;;52.00;21.30;;;;;;;-2.99;69.49;101002.02;109570;1273;22428;-65
2022/03/15 03:35:34;;;;;;;48.80;20.80;;;;;;;-3.02;69.74;101002.06;108857;1273;22689;-64
2022/03/15 03:38:04;;;;;;;42.90;20.00;;;;;;;-3.03;70.03;100997.75;109310;1274;23256;-65
2022/03/15 03:40:32;;;;;;;43.10;20.70;;;;;;;-3.04;70.18;100997.82;109567;1273;22401;-65
2022/03/15 03:43:01;;;;;;;48.60;19.70;;;;;;;-3.05;70.55;101001.32;109556;1273;22436;-65
2022/03/15 03:45:29;;;;;;;44.30;24.00;;;;;;;-3.07;70.60;101001.64;109498;1273;22433;-65
2022/03/15 03:47:57;;;;;;;53.20;23.70;;;;;;;-3.07;70.83;101004.90;109562;1273;22427;-66
2022/03/15 03:50:26;;;;;;;40.90;20.90;;;;;;;-3.07;71.09;101003.77;109582;1273;22418;-66
2022/03/15 03:52:54;;;;;;;38.20;18.80;;;;;;;-3.05;71.13;101001.68;109573;1273;22435;-66
2022/03/15 03:55:22;;;;;;;36.30;17.60;;;;;;;-3.04;71.37;100999.11;109549;1273;22457;-67
2022/03/15 03:57:51;;;;;;;41.00;18.80;;;;;;;-3.02;71.40;101004.56;109616;1273;22448;-66
2022/03/15 04:00:19;;;;;;;37.20;16.80;;;;;;;-3.00;71.60;101001.40;109397;1273;23166;-66
2022/03/15 04:02:48;;;;;;;30.10;16.40;;;;;;;-2.98;71.62;101002.48;109578;1273;22438;-66
2022/03/15 04:05:16;;;;;;;27.90;16.10;;;;;;;-2.96;71.73;101001.27;109400;1273;25258;-64
2022/03/15 04:07:46;;;;;;;26.60;15.10;;;;;;;-2.98;71.61;100999.63;109422;1273;23270;-65
2022/03/15 04:10:16;;;;;;;29.30;15.90;;;;;;;-2.95;71.58;101006.96;109619;1273;22442;-65
2022/03/15 04:12:46;;;;;;;29.10;15.70;;;;;;;-2.95;71.67;101008.20;109603;1273;22434;-65
2022/03/15 04:15:34;;;;;;;31.30;15.90;;;;;;;-2.96;71.55;101004.57;109532;1272;22429;-65
2022/03/15 04:18:03;;;;;;;29.90;16.10;;;;;;;-2.98;71.34;101002.42;109624;1273;22421;-65
2022/03/15 04:20:32;;;;;;;33.70;15.70;;;;;;;-3.00;71.18;100996.91;109557;1273;22720;-65
2022/03/15 04:23:18;;;;;;;31.70;15.30;;;;;;;-3.01;71.23;100993.12;109553;1272;23115;-65
2022/03/15 04:25:46;;;;;;;30.00;15.20;;;;;;;-3.01;71.32;100992.92;109539;1273;22475;-65
2022/03/15 04:28:14;;;;;;;26.20;14.00;;;;;;;-3.00;71.48;100999.39;109535;1272;22413;-65
2022/03/15 04:30:45;;;;;;;29.00;14.20;;;;;;;-2.97;71.61;101003.48;109515;1273;22489;-65
2022/03/15 04:33:15;;;;;;;30.20;15.50;;;;;;;-2.97;71.64;100997.75;109549;1273;23230;-65
2022/03/15 04:35:43;;;;;;;27.10;14.80;;;;;;;-3.00;71.41;100999.05;109589;1273;22470;-66
2022/03/15 04:38:13;;;;;;;49.90;26.80;;;;;;;-3.00;71.48;100995.54;109535;1273;23120;-66
2022/03/15 04:40:41;;;;;;;49.80;25.30;;;;;;;-3.00;71.59;100996.18;109607;1273;22574;-65
2022/03/15 04:43:10;;;;;;;51.90;26.00;;;;;;;-2.97;71.84;100996.67;109600;1273;23216;-65
2022/03/15 04:45:39;;;;;;;90.00;48.90;;;;;;;-2.94;72.10;100994.62;109517;1272;22569;-64
2022/03/15 04:48:07;;;;;;;107.10;55.20;;;;;;;-2.88;72.33;100995.31;109529;1273;22540;-65
2022/03/15 04:50:35;;;;;;;123.60;58.00;;;;;;;-2.81;72.49;100995.25;108776;1273;24795;-64
2022/03/15 04:53:04;;;;;;;79.00;37.60;;;;;;;-2.72;72.51;100993.92;109555;1273;22535;-64
2022/03/15 04:55:32;;;;;;;64.80;32.60;;;;;;;-2.61;72.67;100996.34;109572;1272;22439;-65
2022/03/15 04:58:00;;;;;;;61.40;29.90;;;;;;;-2.50;72.63;100987.54;109538;1273;22426;-65
2022/03/15 05:00:28;;;;;;;56.30;27.00;;;;;;;-2.37;72.65;100989.02;109528;1273;22570;-65
2022/03/15 05:03:00;;;;;;;44.00;23.00;;;;;;;-2.23;72.51;100989.14;109542;1273;23097;-65
2022/03/15 05:05:28;;;;;;;43.90;22.60;;;;;;;-2.10;72.35;100988.30;109568;1273;23348;-65
2022/03/15 05:07:57;;;;;;;40.60;20.60;;;;;;;-1.97;72.09;100984.19;109578;1273;22389;-66
2022/03/15 05:13:14;;;;;;;38.30;20.40;;;;;;;-1.74;71.58;100983.53;109599;1273;22340;-66
2022/03/15 05:15:42;;;;;;;35.30;19.40;;;;;;;-1.63;71.19;100988.21;109510;1272;23748;-65
2022/03/15 05:18:10;;;;;;;36.40;22.20;;;;;;;-1.57;71.09;100980.82;109579;1273;23252;-66
2022/03/15 05:20:40;;;;;;;42.60;22.80;;;;;;;-1.47;70.95;100987.20;109503;1273;22461;-65
2022/03/15 05:23:08;;;;;;;55.60;27.90;;;;;;;-1.39;71.01;100986.80;109398;1273;22435;-65
2022/03/15 05:25:36;;;;;;;48.90;25.70;;;;;;;-1.31;70.59;100984.31;109598;1273;22270;-65
2022/03/15 05:28:08;;;;;;;60.90;29.00;;;;;;;-1.24;70.56;100983.54;109546;1273;22377;-65
2022/03/15 05:30:37;;;;;;;77.00;38.80;;;;;;;-1.16;70.49;100985.13;109597;1272;22486;-66
2022/03/15 05:33:10;;;;;;;73.80;39.30;;;;;;;-1.11;70.06;100982.61;109386;1274;23172;-66
2022/03/15 05:35:42;;;;;;;76.00;38.10;;;;;;;-1.05;70.06;100978.70;109378;1274;22436;-65
2022/03/15 05:38:10;;;;;;;69.70;36.50;;;;;;;-0.97;69.94;100980.62;109380;1275;23110;-66
2022/03/15 05:40:39;;;;;;;49.20;27.90;;;;;;;-0.91;69.57;100980.34;109494;1275;22467;-66
2022/03/15 05:43:07;;;;;;;47.90;26.60;;;;;;;-0.84;69.76;100982.32;109482;1276;24145;-66
2022/03/15 05:45:35;;;;;;;38.20;23.00;;;;;;;-0.78;69.50;100981.56;109391;1274;22293;-65
2022/03/15 05:48:04;;;;;;;38.30;22.70;;;;;;;-0.70;69.52;100979.94;109419;1276;22445;-65
2022/03/15 05:50:32;;;;;;;38.00;19.70;;;;;;;-0.61;69.30;100977.81;109367;1274;23100;-66
2022/03/15 05:53:04;;;;;;;38.10;20.40;;;;;;;-0.52;69.36;100976.90;109337;1274;22420;-66
2022/03/15 05:55:34;;;;;;;34.90;19.80;;;;;;;-0.44;69.03;100980.23;109362;1274;22411;-66
2022/03/15 05:58:02;;;;;;;37.20;20.80;;;;;;;-0.35;68.66;100982.69;109361;1274;23470;-66
2022/03/15 06:00:32;;;;;;;41.30;20.80;;;;;;;-0.30;68.40;100979.89;109362;1274;22543;-65
2022/03/15 06:03:00;;;;;;;46.00;26.30;;;;;;;-0.22;68.42;100979.65;109374;1274;22480;-66
2022/03/15 06:05:30;;;;;;;57.10;30.40;;;;;;;-0.16;68.19;100982.46;109393;1274;23228;-66
2022/03/15 06:07:58;;;;;;;55.70;31.70;;;;;;;-0.10;67.81;100984.79;109403;1274;22456;-66
2022/03/15 06:10:28;;;;;;;57.80;32.50;;;;;;;-0.03;67.55;100980.20;109399;1274;22551;-66
2022/03/15 06:12:57;;;;;;;65.30;35.10;;;;;;;0.04;67.58;100976.81;109442;1274;23059;-66
2022/03/15 06:15:26;;;;;;;62.10;35.70;;;;;;;0.13;67.31;100980.01;109486;1275;22399;-66
2022/03/15 06:17:57;;;;;;;68.30;37.80;;;;;;;0.21;67.11;100977.42;109421;1275;22427;-66
2022/03/15 06:20:25;;;;;;;68.20;38.60;;;;;;;0.29;66.89;100974.14;109388;1275;22394;-66
2022/03/15 06:23:00;;;;;;;68.00;38.20;;;;;;;0.36;66.53;100974.79;109371;1274;22382;-66
2022/03/15 06:25:30;;;;;;;66.80;35.60;;;;;;;0.43;66.42;100977.63;109389;1274;22440;-66
2022/03/15 06:27:58;;;;;;;67.30;36.80;;;;;;;0.50;66.34;100972.11;109394;1274;23294;-66
2022/03/15 06:30:27;;;;;;;75.10;40.40;;;;;;;0.59;66.24;100974.24;109478;1276;22428;-66
2022/03/15 06:32:59;;;;;;;75.20;40.10;;;;;;;0.65;65.68;100974.45;109349;1274;22466;-66
2022/03/15 06:35:29;;;;;;;74.80;39.40;;;;;;;0.70;65.30;100970.96;109406;1274;23280;-66
2022/03/15 06:37:57;;;;;;;70.60;37.00;;;;;;;0.75;65.29;100968.60;109384;1274;22442;-66
2022/03/15 06:40:26;;;;;;;70.80;39.90;;;;;;;0.81;65.23;100968.69;109464;1274;23525;-66
2022/03/15 06:42:54;;;;;;;68.70;36.10;;;;;;;0.88;65.21;100968.52;109425;1274;22426;-66
2022/03/15 06:45:23;;;;;;;74.00;38.50;;;;;;;0.95;64.78;100968.29;109428;1274;22407;-66
2022/03/15 06:47:52;;;;;;;76.00;40.00;;;;;;;1.00;64.57;100964.75;109392;1274;22424;-67
2022/03/15 06:50:21;;;;;;;77.10;43.50;;;;;;;1.04;64.65;100963.35;109403;1274;22443;-66
2022/03/15 06:52:49;;;;;;;78.50;42.00;;;;;;;1.11;64.42;100962.92;109406;1274;22624;-66
2022/03/15 06:55:17;;;;;;;80.60;44.00;;;;;;;1.16;64.29;100959.88;109433;1274;22429;-64
2022/03/15 06:57:46;;;;;;;81.50;46.20;;;;;;;1.23;64.09;100960.89;109345;1276;22544;-64
2022/03/15 07:00:16;;;;;;;83.80;47.60;;;;;;;1.30;64.01;100957.59;109468;1273;22430;-65
2022/03/15 07:02:44;;;;;;;84.50;48.30;;;;;;;1.37;64.08;100957.54;109391;1274;22424;-65
2022/03/15 07:05:12;;;;;;;78.80;44.90;;;;;;;1.45;63.68;100956.92;109426;1272;22433;-65
2022/03/15 07:07:42;;;;;;;78.10;45.60;;;;;;;1.53;63.51;100953.93;109387;1274;22490;-65
2022/03/15 07:10:11;;;;;;;85.80;47.60;;;;;;;1.60;63.32;100949.77;109441;1276;22429;-65
2022/03/15 07:12:48;;;;;;;87.10;46.90;;;;;;;1.70;62.99;100951.89;109469;1274;22492;-65
2022/03/15 07:15:17;;;;;;;88.30;46.90;;;;;;;1.77;63.04;100948.02;109444;1274;22444;-65
2022/03/15 07:17:51;;;;;;;104.50;54.30;;;;;;;1.86;62.52;100950.28;109327;1276;23156;-65
2022/03/15 07:20:19;;;;;;;106.70;54.20;;;;;;;1.95;62.35;100945.35;109462;1274;22268;-65
2022/03/15 07:22:49;;;;;;;94.70;51.60;;;;;;;2.04;62.19;100942.59;109300;1274;22400;-66
2022/03/15 07:25:19;;;;;;;102.30;57.80;;;;;;;2.12;61.76;100941.66;109291;1276;23152;-65
2022/03/15 07:27:48;;;;;;;106.80;57.70;;;;;;;2.21;61.50;100938.39;109385;1274;23235;-66
2022/03/15 07:30:16;;;;;;;92.10;54.20;;;;;;;2.29;61.16;100936.00;109409;1274;23488;-66
2022/03/15 07:32:45;;;;;;;90.20;50.50;;;;;;;2.37;61.24;100932.95;109471;1273;22453;-65
2022/03/15 07:35:13;;;;;;;86.30;48.40;;;;;;;2.45;61.02;100930.05;109401;1273;23166;-66
2022/03/15 07:37:53;;;;;;;89.40;46.00;;;;;;;2.55;60.81;100934.21;109572;1273;22432;-66
2022/03/15 07:40:22;;;;;;;91.80;49.70;;;;;;;2.64;60.75;100934.25;109583;1273;22442;-66
2022/03/15 07:42:52;;;;;;;88.40;48.20;;;;;;;2.73;60.28;100937.70;109597;1272;22401;-66
2022/03/15 07:45:20;;;;;;;78.50;46.70;;;;;;;2.86;59.58;100938.05;109524;1273;22240;-66
2022/03/15 07:47:48;;;;;;;70.50;41.50;;;;;;;2.96;59.37;100936.69;109530;1273;23481;-66
2022/03/15 07:50:17;;;;;;;78.40;43.20;;;;;;;3.07;59.13;100938.11;109379;1273;22409;-66
2022/03/15 07:52:47;;;;;;;79.10;42.70;;;;;;;3.18;58.99;100933.42;109498;1273;22549;-66
2022/03/15 07:55:21;;;;;;;65.30;35.30;;;;;;;3.29;58.66;100935.29;109553;1273;22495;-66
2022/03/15 07:57:49;;;;;;;62.90;34.00;;;;;;;3.40;58.19;100935.14;109252;1273;22432;-66
2022/03/15 08:00:17;;;;;;;65.90;33.60;;;;;;;3.50;57.93;100930.16;109573;1273;22370;-66
2022/03/15 08:02:46;;;;;;;52.60;29.90;;;;;;;3.60;57.80;100929.98;109526;1273;22663;-66
2022/03/15 08:05:18;;;;;;;50.70;30.30;;;;;;;3.72;57.34;100931.02;109602;1273;22409;-66
2022/03/15 08:07:47;;;;;;;50.90;29.10;;;;;;;3.82;57.02;100931.31;109589;1273;22449;-66
2022/03/15 08:10:18;;;;;;;51.80;26.60;;;;;;;3.95;57.10;100929.73;109573;1273;22426;-66
2022/03/15 08:12:47;;;;;;;55.80;29.10;;;;;;;4.07;57.02;100930.83;109543;1273;22438;-66
2022/03/15 08:15:16;;;;;;;56.80;28.40;;;;;;;4.17;56.50;100925.23;109562;1273;22478;-66
2022/03/15 08:17:46;;;;;;;46.50;27.30;;;;;;;4.28;55.98;100924.46;109536;1273;22516;-66
2022/03/15 08:20:18;;;;;;;55.40;28.80;;;;;;;4.39;55.92;100916.36;109529;1273;22445;-66
2022/03/15 08:22:47;;;;;;;53.90;28.90;;;;;;;4.49;55.57;100914.83;109499;1273;22427;-66
2022/03/15 08:25:18;;;;;;;57.60;27.70;;;;;;;4.56;55.46;100913.73;109436;1273;22626;-65
2022/03/15 08:27:46;;;;;;;48.00;25.50;;;;;;;4.63;54.99;100909.11;109512;1273;22634;-66
2022/03/15 08:30:14;;;;;;;39.70;22.90;;;;;;;4.72;54.67;100907.33;109603;1273;23014;-66
2022/03/15 08:32:43;;;;;;;34.60;20.20;;;;;;;4.81;54.24;100907.38;109544;1273;22452;-66
2022/03/15 08:35:11;;;;;;;40.40;22.70;;;;;;;4.90;54.12;100909.73;109053;1274;22506;-66
2022/03/15 08:37:39;;;;;;;38.50;22.50;;;;;;;4.98;53.98;100909.64;109368;1273;22429;-66
2022/03/15 08:40:09;;;;;;;39.60;21.60;;;;;;;5.07;53.93;100908.58;109413;1273;22525;-66
2022/03/15 08:42:57;;;;;;;42.60;24.20;;;;;;;5.18;53.76;100912.56;109400;1274;22535;-64
2022/03/15 08:45:25;;;;;;;43.50;23.90;;;;;;;5.26;53.47;100904.01;109493;1272;22447;-65
2022/03/15 08:50:06;;;;;;;48.80;27.40;;;;;;;5.43;52.60;100905.94;101860;1312;545447;-66
2022/03/15 08:52:36;;;;;;;54.80;28.00;;;;;;;5.50;52.71;100906.64;108260;1286;23242;-66
2022/03/15 08:55:04;;;;;;;43.30;27.40;;;;;;;5.56;52.11;100907.44;108328;1286;22433;-67
2022/03/15 08:57:37;;;;;;;42.30;23.20;;;;;;;5.63;52.02;100908.55;108268;1286;22457;-64
2022/03/15 09:00:07;;;;;;;41.80;23.20;;;;;;;5.73;51.29;100908.43;109126;1274;22448;-65
2022/03/15 09:02:35;;;;;;;35.50;17.50;;;;;;;5.85;50.02;100913.14;109286;1274;149163;-64
2022/03/15 09:05:03;;;;;;;31.40;16.70;;;;;;;5.96;49.67;100910.98;109511;1273;22505;-65
2022/03/15 09:07:32;;;;;;;33.00;16.20;;;;;;;6.07;48.94;100909.75;109464;1273;22448;-65
2022/03/15 09:10:00;;;;;;;32.10;16.50;;;;;;;6.18;48.77;100905.94;109404;1274;22433;-65
2022/03/15 09:12:42;;;;;;;29.50;15.70;;;;;;;6.28;48.44;100904.10;109496;1272;22238;-65
2022/03/15 09:15:12;;;;;;;25.90;15.60;;;;;;;6.37;48.37;100907.45;109524;1274;23178;-66
2022/03/15 09:17:40;;;;;;;26.20;15.20;;;;;;;6.44;47.78;100911.47;109526;1272;23232;-65
2022/03/15 09:20:30;;;;;;;25.80;15.00;;;;;;;6.52;46.85;100905.31;109493;1272;22441;-65
2022/03/15 09:22:59;;;;;;;32.60;15.90;;;;;;;6.59;46.68;100907.52;109545;1272;23417;-65
2022/03/15 09:25:27;;;;;;;26.90;16.70;;;;;;;6.65;45.97;100907.27;109565;1272;22421;-65
2022/03/15 09:27:55;;;;;;;27.10;16.10;;;;;;;6.69;45.96;100904.56;109561;1274;22437;-65
2022/03/15 09:30:24;;;;;;;34.20;16.40;;;;;;;6.74;45.87;100905.02;109548;1272;22411;-65
2022/03/15 09:32:52;;;;;;;26.60;15.60;;;;;;;6.79;45.30;100899.02;109574;1272;22517;-65
2022/03/15 09:35:20;;;;;;;24.00;14.90;;;;;;;6.85;44.74;100896.19;109520;1273;22392;-65
2022/03/15 09:37:49;;;;;;;32.40;16.10;;;;;;;6.93;44.32;100897.94;109538;1273;22401;-65
2022/03/15 09:40:21;;;;;;;34.70;17.60;;;;;;;7.02;44.35;100894.16;109586;1272;22421;-66
2022/03/15 09:42:51;;;;;;;28.00;17.00;;;;;;;7.09;44.03;100895.84;109547;1272;22271;-66
2022/03/15 09:45:20;;;;;;;28.60;15.70;;;;;;;7.17;43.84;100898.69;109607;1272;22246;-65
2022/03/15 09:47:51;;;;;;;21.80;13.40;;;;;;;7.21;44.07;100891.61;105860;1274;25619;-65
2022/03/15 09:50:23;;;;;;;16.40;9.80;;;;;;;7.26;43.72;100893.41;109416;1274;22415;-65
2022/03/15 09:52:57;;;;;;;16.30;10.50;;;;;;;7.34;43.13;100892.25;109484;1274;22584;-65
2022/03/15 09:55:25;;;;;;;15.20;9.70;;;;;;;7.39;43.37;100892.25;109495;1273;22428;-66
2022/03/15 09:57:54;;;;;;;18.00;9.50;;;;;;;7.43;43.19;100887.77;109482;1272;23191;-66
2022/03/15 10:00:24;;;;;;;15.00;9.90;;;;;;;7.48;42.57;100889.13;109463;1272;22405;-66
2022/03/15 10:02:54;;;;;;;16.90;10.20;;;;;;;7.52;42.69;100884.03;109502;1273;22435;-66
2022/03/15 10:05:23;;;;;;;15.40;10.90;;;;;;;7.54;42.87;100881.95;109038;1274;22711;-66
2022/03/15 10:07:51;;;;;;;17.70;10.60;;;;;;;7.57;43.24;100878.45;109461;1274;23294;-66
2022/03/15 10:10:23;;;;;;;18.10;10.60;;;;;;;7.59;43.30;100879.92;109446;1274;22489;-66
2022/03/15 10:12:51;;;;;;;17.70;9.90;;;;;;;7.63;43.08;100876.94;109550;1272;22496;-66
2022/03/15 10:15:22;;;;;;;16.10;10.30;;;;;;;7.66;42.78;100880.27;109506;1274;23134;-66
2022/03/15 10:17:53;;;;;;;21.60;10.90;;;;;;;7.69;42.70;100871.21;109522;1274;23370;-67
2022/03/15 10:20:28;;;;;;;16.60;10.60;;;;;;;7.72;43.08;100865.92;109520;1271;22466;-66
2022/03/15 10:23:00;;;;;;;17.50;11.50;;;;;;;7.77;43.00;100865.11;109402;1273;22418;-66
2022/03/15 10:25:34;;;;;;;18.80;10.80;;;;;;;7.82;42.75;100858.04;109534;1272;23248;-66
2022/03/15 10:28:06;;;;;;;16.60;10.00;;;;;;;7.85;42.76;100852.75;109550;1274;22435;-65
2022/03/15 10:30:35;;;;;;;17.00;10.80;;;;;;;7.90;42.33;100856.09;109514;1274;22430;-66
2022/03/15 10:33:04;;;;;;;19.70;10.10;;;;;;;7.94;42.24;100852.04;109519;1273;22422;-65
2022/03/15 10:35:37;;;;;;;12.10;8.50;;;;;;;8.00;42.12;100850.34;109499;1273;23149;-65
2022/03/15 10:38:06;;;;;;;13.60;8.10;;;;;;;8.05;41.73;100846.59;109494;1272;22418;-65
2022/03/15 10:40:41;;;;;;;14.10;7.30;;;;;;;8.10;41.83;100847.81;109488;1274;22387;-65
2022/03/15 10:43:27;;;;;;;14.50;7.40;;;;;;;8.16;40.75;100847.78;109495;1273;22519;-65
2022/03/15 10:45:57;;;;;;;12.20;6.80;;;;;;;8.19;40.61;100837.31;109486;1272;22425;-66
2022/03/15 10:48:31;;;;;;;14.50;7.60;;;;;;;8.19;40.77;100835.50;109437;1273;22557;-65
2022/03/15 10:51:07;;;;;;;14.80;8.10;;;;;;;8.22;41.17;100841.77;109490;1273;22439;-65
2022/03/15 10:53:46;;;;;;;12.40;6.90;;;;;;;8.25;41.60;100840.71;109306;1274;22547;-66
2022/03/15 10:56:21;;;;;;;13.10;7.00;;;;;;;8.30;41.29;100839.72;109529;1274;22408;-65
2022/03/15 10:59:01;;;;;;;13.50;7.90;;;;;;;8.35;40.74;100835.94;109558;1273;22470;-66
2022/03/15 11:01:38;;;;;;;15.80;7.60;;;;;;;8.40;40.69;100833.79;109479;1274;23120;-66
2022/03/15 11:04:10;;;;;;;11.10;6.30;;;;;;;8.43;39.91;100834.24;109476;1273;22402;-66
2022/03/15 11:06:44;;;;;;;10.20;6.20;;;;;;;8.47;39.64;100835.00;109524;1273;22469;-66
2022/03/15 11:09:27;;;;;;;8.00;5.30;;;;;;;8.49;39.06;100832.36;109513;1274;23557;-65
2022/03/15 11:12:07;;;;;;;10.20;5.50;;;;;;;8.51;38.39;100823.46;109519;1274;22460;-65
2022/03/15 11:14:47;;;;;;;11.40;6.10;;;;;;;8.52;38.84;100821.97;109503;1274;22457;-66
2022/03/15 11:17:21;;;;;;;8.20;5.20;;;;;;;8.56;39.15;100823.77;109518;1274;22990;-65
2022/03/15 11:19:53;;;;;;;9.50;6.50;;;;;;;8.60;38.65;100817.24;109449;1273;23184;-65
2022/03/15 11:22:27;;;;;;;9.20;5.50;;;;;;;8.63;38.70;100812.52;109454;1274;23206;-65